Time;durP1;ratioP1;P1;durP2;ratioP2;P2;SDS_P1;SDS_P2;PMS_P1;PMS_P2;Temp;Humidity;BMP_temperature;BMP_pressure;BME280_temperature;BME280_humidity;BME280_pressure;Samples;Min_cycle;Max_cycle;Signal;HPM_P1;HPM_P2
2022/06/10 00:01:15;;;;;;;;;1.00;1.00;;;;;;;;5069585;27;47474;-74
2022/06/10 00:03:41;;;;;;;;;1.00;1.00;;;;;;;;5072294;27;45226;-74
2022/06/10 00:06:07;;;;;;;;;2.00;1.00;;;;;;;;5075737;27;45475;-73
2022/06/10 00:08:37;;;;;;;;;1.00;1.00;;;;;;;;5073145;27;46222;-74
2022/06/10 00:11:03;;;;;;;;;0.33;0.33;;;;;;;;5068509;27;45521;-74
2022/06/10 00:13:30;;;;;;;;;1.33;0.33;;;;;;;;5064160;28;45355;-75
2022/06/10 00:15:56;;;;;;;;;3.00;1.00;;;;;;;;5068887;27;45305;-75
2022/06/10 00:18:23;;;;;;;;;2.00;0.67;;;;;;;;5072263;27;46954;-75
2022/06/10 00:20:48;;;;;;;;;2.00;1.00;;;;;;;;5061181;28;45439;-74
2022/06/10 00:23:13;;;;;;;;;1.67;1.67;;;;;;;;5067518;27;45458;-75
2022/06/10 00:25:39;;;;;;;;;1.00;1.00;;;;;;;;5067779;27;45451;-74
2022/06/10 00:28:05;;;;;;;;;0.67;0.67;;;;;;;;5067605;28;46182;-74
2022/06/10 00:30:31;;;;;;;;;1.00;1.00;;;;;;;;5070987;28;46117;-75
2022/06/10 00:32:57;;;;;;;;;2.00;1.00;;;;;;;;5070406;27;45374;-75
2022/06/10 00:35:22;;;;;;;;;1.00;1.00;;;;;;;;5076404;27;45478;-75
2022/06/10 00:37:47;;;;;;;;;2.67;1.00;;;;;;;;5063412;27;46997;-75
2022/06/10 00:40:14;;;;;;;;;1.00;1.00;;;;;;;;5074294;27;45489;-75
2022/06/10 00:42:39;;;;;;;;;1.00;1.00;;;;;;;;5074032;27;45462;-75
2022/06/10 00:45:06;;;;;;;;;2.33;1.00;;;;;;;;5074331;28;45394;-75
2022/06/10 00:47:36;;;;;;;;;2.00;2.00;;;;;;;;5064437;28;46453;-74
2022/06/10 00:50:13;;;;;;;;;0.00;0.00;;;;;;;;5073778;27;45313;-74
2022/06/10 00:52:41;;;;;;;;;2.33;2.00;;;;;;;;5074424;27;45681;-75
2022/06/10 00:55:07;;;;;;;;;1.00;1.00;;;;;;;;5070095;27;45449;-74
2022/06/10 00:57:42;;;;;;;;;1.67;1.67;;;;;;;;5067837;27;45410;-75
2022/06/10 01:00:09;;;;;;;;;1.00;1.00;;;;;;;;5073629;28;45482;-75
2022/06/10 01:02:35;;;;;;;;;1.67;0.33;;;;;;;;5081447;27;45413;-75
2022/06/10 01:05:02;;;;;;;;;1.00;1.00;;;;;;;;5068214;27;46181;-74
2022/06/10 01:07:31;;;;;;;;;1.00;1.00;;;;;;;;5073597;27;47183;-75
2022/06/10 01:09:57;;;;;;;;;1.00;1.00;;;;;;;;5077924;27;45529;-75
2022/06/10 01:12:28;;;;;;;;;0.33;0.33;;;;;;;;5075504;27;45361;-73
2022/06/10 01:14:56;;;;;;;;;2.00;2.00;;;;;;;;5064189;27;45312;-74
2022/06/10 01:17:21;;;;;;;;;2.00;2.00;;;;;;;;5075075;27;47210;-75
2022/06/10 01:20:05;;;;;;;;;1.50;0.75;;;;;;;;5072521;28;45565;-74
2022/06/10 01:22:49;;;;;;;;;3.00;1.00;;;;;;;;5060391;28;45512;-74
2022/06/10 01:25:33;;;;;;;;;1.67;1.67;;;;;;;;5072193;27;45576;-74
2022/06/10 01:28:07;;;;;;;;;1.00;1.00;;;;;;;;5076887;27;45998;-74
2022/06/10 01:30:50;;;;;;;;;1.00;1.00;;;;;;;;5073283;27;46024;-75
2022/06/10 01:33:19;;;;;;;;;1.00;1.00;;;;;;;;5075727;27;45355;-75
2022/06/10 01:35:51;;;;;;;;;1.00;1.00;;;;;;;;5060608;28;45478;-75
2022/06/10 01:38:30;;;;;;;;;1.00;1.00;;;;;;;;5073554;27;46372;-74
2022/06/10 01:40:59;;;;;;;;;3.33;2.67;;;;;;;;5073422;27;45391;-74
2022/06/10 01:43:33;;;;;;;;;3.00;1.67;;;;;;;;5065854;27;45394;-74
2022/06/10 01:46:05;;;;;;;;;1.00;1.00;;;;;;;;5076749;27;45461;-74
2022/06/10 01:48:34;;;;;;;;;1.00;1.00;;;;;;;;5063996;27;45410;-74
2022/06/10 01:51:17;;;;;;;;;1.00;1.00;;;;;;;;5076922;27;45350;-74
2022/06/10 01:53:43;;;;;;;;;1.00;1.00;;;;;;;;5072611;27;45648;-74
2022/06/10 01:56:22;;;;;;;;;2.00;1.00;;;;;;;;5075027;27;45577;-75
2022/06/10 01:58:51;;;;;;;;;0.00;0.00;;;;;;;;5068741;27;45518;-74
2022/06/10 02:01:19;;;;;;;;;1.33;1.33;;;;;;;;5078257;27;46827;-74
2022/06/10 02:03:55;;;;;;;;;1.00;1.00;;;;;;;;5067293;27;45524;-74
2022/06/10 02:06:24;;;;;;;;;1.00;1.00;;;;;;;;5060848;28;45351;-75
2022/06/10 02:08:55;;;;;;;;;2.33;2.33;;;;;;;;5072687;27;47153;-75
2022/06/10 02:11:22;;;;;;;;;1.00;1.00;;;;;;;;5064842;28;45458;-74
2022/06/10 02:13:58;;;;;;;;;1.00;1.00;;;;;;;;5071669;27;45583;-74
2022/06/10 02:16:26;;;;;;;;;0.00;0.00;;;;;;;;5068446;27;45316;-75
2022/06/10 02:19:03;;;;;;;;;2.00;1.00;;;;;;;;5067058;27;46156;-74
2022/06/10 02:21:32;;;;;;;;;1.67;0.67;;;;;;;;5070866;27;45549;-74
2022/06/10 02:24:08;;;;;;;;;3.00;1.00;;;;;;;;5070606;27;45307;-73
2022/06/10 02:26:35;;;;;;;;;3.67;2.67;;;;;;;;5068164;28;45339;-74
2022/06/10 02:29:02;;;;;;;;;1.00;1.00;;;;;;;;5064436;28;45488;-73
2022/06/10 02:31:32;;;;;;;;;3.00;1.00;;;;;;;;5066973;28;49187;-74
2022/06/10 02:33:58;;;;;;;;;1.00;1.00;;;;;;;;5070638;27;45413;-74
2022/06/10 02:36:36;;;;;;;;;1.00;1.00;;;;;;;;5073514;28;45304;-73
2022/06/10 02:39:08;;;;;;;;;1.00;1.00;;;;;;;;5069250;27;46138;-73
2022/06/10 02:41:48;;;;;;;;;1.00;1.00;;;;;;;;5074138;27;45527;-74
2022/06/10 02:44:16;;;;;;;;;2.33;1.33;;;;;;;;5067710;27;45560;-74
2022/06/10 02:46:57;;;;;;;;;2.00;0.67;;;;;;;;5070178;27;45380;-74
2022/06/10 02:49:22;;;;;;;;;3.00;2.00;;;;;;;;5068837;27;46290;-74
2022/06/10 02:51:48;;;;;;;;;2.00;2.00;;;;;;;;5072297;27;45476;-74
2022/06/10 02:54:18;;;;;;;;;1.00;1.00;;;;;;;;5073963;27;45417;-74
2022/06/10 02:56:44;;;;;;;;;2.00;0.67;;;;;;;;5070161;27;45570;-74
2022/06/10 03:02:07;;;;;;;;;1.33;1.00;;;;;;;;5069289;28;45333;-74
2022/06/10 03:04:45;;;;;;;;;1.00;1.00;;;;;;;;5075541;27;45542;-74
2022/06/10 03:07:21;;;;;;;;;3.00;1.67;;;;;;;;5068741;28;45461;-74
2022/06/10 03:09:56;;;;;;;;;1.33;1.33;;;;;;;;5070496;27;46038;-74
2022/06/10 03:12:39;;;;;;;;;2.00;2.00;;;;;;;;5064438;27;45508;-74
2022/06/10 03:15:23;;;;;;;;;1.00;1.00;;;;;;;;5061848;28;45456;-73
2022/06/10 03:18:00;;;;;;;;;0.67;0.67;;;;;;;;5074692;27;45493;-73
2022/06/10 03:20:30;;;;;;;;;1.00;1.00;;;;;;;;5070283;28;45431;-74
2022/06/10 03:22:58;;;;;;;;;1.00;1.00;;;;;;;;5060163;28;45437;-74
2022/06/10 03:25:26;;;;;;;;;1.00;1.00;;;;;;;;5067104;27;45327;-74
2022/06/10 03:28:00;;;;;;;;;2.00;1.00;;;;;;;;5062793;27;45353;-74
2022/06/10 03:30:27;;;;;;;;;1.00;1.00;;;;;;;;5058594;28;45453;-74
2022/06/10 03:32:57;;;;;;;;;1.00;0.00;;;;;;;;5071455;27;45517;-74
2022/06/10 03:35:27;;;;;;;;;1.00;1.00;;;;;;;;5066905;27;45501;-74
2022/06/10 03:37:52;;;;;;;;;0.00;0.00;;;;;;;;5068495;27;45490;-74
2022/06/10 03:40:19;;;;;;;;;2.67;1.00;;;;;;;;5075904;27;46365;-74
2022/06/10 03:42:48;;;;;;;;;0.33;0.33;;;;;;;;5070111;27;45405;-74
2022/06/10 03:45:16;;;;;;;;;0.00;0.00;;;;;;;;5064697;27;45370;-74
2022/06/10 03:47:42;;;;;;;;;0.67;0.67;;;;;;;;5063672;27;45525;-73
2022/06/10 03:50:10;;;;;;;;;1.33;1.33;;;;;;;;5071193;27;47242;-73
2022/06/10 03:52:36;;;;;;;;;1.67;1.67;;;;;;;;5066331;27;45403;-74
2022/06/10 03:55:02;;;;;;;;;1.33;1.33;;;;;;;;5067134;28;45502;-74
2022/06/10 03:57:27;;;;;;;;;1.00;1.00;;;;;;;;5071541;27;45574;-74
2022/06/10 03:59:53;;;;;;;;;3.00;1.00;;;;;;;;5071616;27;46324;-74
2022/06/10 04:02:18;;;;;;;;;1.00;1.00;;;;;;;;5062349;27;45366;-73
2022/06/10 04:04:44;;;;;;;;;1.67;0.67;;;;;;;;5064706;27;45468;-73
2022/06/10 04:07:10;;;;;;;;;1.00;1.00;;;;;;;;5063307;28;45442;-73
2022/06/10 04:09:37;;;;;;;;;1.00;1.00;;;;;;;;5081912;27;47521;-73
2022/06/10 04:12:03;;;;;;;;;3.00;1.00;;;;;;;;5075131;27;45677;-74
2022/06/10 04:14:28;;;;;;;;;0.67;0.67;;;;;;;;5076843;28;45490;-74
2022/06/10 04:16:53;;;;;;;;;1.00;1.00;;;;;;;;5084800;27;45591;-73
2022/06/10 04:19:19;;;;;;;;;0.00;0.00;;;;;;;;5079572;27;46162;-74
2022/06/10 04:21:44;;;;;;;;;2.00;2.00;;;;;;;;5073254;28;45360;-74
2022/06/10 04:24:09;;;;;;;;;1.00;1.00;;;;;;;;5073755;27;45559;-73
2022/06/10 04:26:34;;;;;;;;;1.00;1.00;;;;;;;;5065668;28;45236;-74
2022/06/10 04:29:00;;;;;;;;;1.00;1.00;;;;;;;;5076403;27;46089;-74
2022/06/10 04:31:25;;;;;;;;;1.00;1.00;;;;;;;;5069728;28;45905;-74
2022/06/10 04:33:50;;;;;;;;;2.33;1.33;;;;;;;;5071899;27;45482;-74
2022/06/10 04:36:17;;;;;;;;;3.00;1.00;;;;;;;;5075600;28;45510;-74
2022/06/10 04:38:42;;;;;;;;;2.00;2.00;;;;;;;;5062382;27;45481;-74
2022/06/10 04:41:07;;;;;;;;;0.67;0.67;;;;;;;;5073367;27;45315;-74
2022/06/10 04:43:33;;;;;;;;;1.00;1.00;;;;;;;;5066000;28;45292;-74
2022/06/10 04:46:01;;;;;;;;;1.00;1.00;;;;;;;;5069903;28;45548;-74
2022/06/10 04:48:26;;;;;;;;;1.67;1.00;;;;;;;;5067385;28;45448;-74
2022/06/10 04:50:51;;;;;;;;;1.00;1.00;;;;;;;;5072100;27;45323;-74
2022/06/10 04:53:17;;;;;;;;;1.00;1.00;;;;;;;;5066915;27;45294;-74
2022/06/10 04:55:42;;;;;;;;;2.00;2.00;;;;;;;;5070609;28;45376;-75
2022/06/10 04:58:08;;;;;;;;;1.00;1.00;;;;;;;;5078869;27;46019;-74
2022/06/10 05:00:35;;;;;;;;;1.00;1.00;;;;;;;;5074218;28;45453;-74
2022/06/10 05:03:02;;;;;;;;;2.00;2.00;;;;;;;;5075889;27;45496;-73
2022/06/10 05:05:28;;;;;;;;;1.00;1.00;;;;;;;;5077966;27;45649;-74
2022/06/10 05:07:54;;;;;;;;;1.00;1.00;;;;;;;;5071766;27;46354;-74
2022/06/10 05:10:19;;;;;;;;;2.00;1.00;;;;;;;;5069508;27;45303;-74
2022/06/10 05:12:45;;;;;;;;;0.00;0.00;;;;;;;;5065475;27;45532;-74
2022/06/10 05:15:10;;;;;;;;;1.33;1.33;;;;;;;;5106703;27;45615;-74
2022/06/10 05:17:36;;;;;;;;;1.00;1.00;;;;;;;;5072931;28;46100;-74
2022/06/10 05:20:01;;;;;;;;;2.00;1.00;;;;;;;;5068288;27;45525;-73
2022/06/10 05:22:26;;;;;;;;;2.00;1.00;;;;;;;;5066304;28;45284;-74
2022/06/10 05:24:51;;;;;;;;;1.67;1.00;;;;;;;;5067335;28;45454;-74
2022/06/10 05:27:16;;;;;;;;;2.00;2.00;;;;;;;;5062820;28;46144;-74
2022/06/10 05:29:42;;;;;;;;;0.67;0.67;;;;;;;;5076636;27;45389;-75
2022/06/10 05:32:07;;;;;;;;;1.67;1.00;;;;;;;;5072528;27;45426;-74
2022/06/10 05:34:44;;;;;;;;;2.00;0.67;;;;;;;;5069854;27;45400;-74
2022/06/10 05:37:10;;;;;;;;;1.00;1.00;;;;;;;;5072896;27;46300;-74
2022/06/10 05:39:35;;;;;;;;;1.33;1.33;;;;;;;;5059769;28;45368;-74
2022/06/10 05:42:06;;;;;;;;;1.33;1.33;;;;;;;;5071094;27;45237;-74
2022/06/10 05:44:33;;;;;;;;;0.33;0.33;;;;;;;;5073077;27;45833;-75
2022/06/10 05:47:00;;;;;;;;;2.00;0.67;;;;;;;;5076210;27;45573;-74
2022/06/10 05:49:25;;;;;;;;;1.67;1.00;;;;;;;;5068819;27;46292;-74
2022/06/10 05:51:50;;;;;;;;;2.00;1.00;;;;;;;;5069872;27;45652;-73
2022/06/10 05:54:16;;;;;;;;;2.67;1.67;;;;;;;;5075322;27;45524;-75
2022/06/10 05:56:43;;;;;;;;;1.00;0.33;;;;;;;;5084491;27;46151;-80
2022/06/10 05:59:09;;;;;;;;;3.00;1.00;;;;;;;;5064582;27;46232;-74
2022/06/10 06:01:34;;;;;;;;;2.33;1.00;;;;;;;;5072526;27;45422;-75
2022/06/10 06:03:59;;;;;;;;;1.67;1.00;;;;;;;;5070631;27;45426;-74
2022/06/10 06:06:24;;;;;;;;;3.00;1.00;;;;;;;;5073818;28;47206;-75
2022/06/10 06:08:50;;;;;;;;;2.33;1.33;;;;;;;;5069451;27;45577;-73
2022/06/10 06:11:15;;;;;;;;;2.33;1.67;;;;;;;;5070546;27;45526;-74
2022/06/10 06:13:42;;;;;;;;;1.00;1.00;;;;;;;;5067642;27;45605;-75
2022/06/10 06:16:08;;;;;;;;;1.00;1.00;;;;;;;;5068003;27;47212;-74
2022/06/10 06:18:33;;;;;;;;;0.00;0.00;;;;;;;;5067775;27;45545;-74
2022/06/10 06:20:59;;;;;;;;;1.00;1.00;;;;;;;;5066677;28;45631;-74
2022/06/10 06:23:24;;;;;;;;;2.33;1.67;;;;;;;;5066549;27;45374;-74
2022/06/10 06:25:49;;;;;;;;;1.00;1.00;;;;;;;;5069522;28;46219;-75
2022/06/10 06:28:14;;;;;;;;;1.67;1.67;;;;;;;;5070061;28;45567;-75
2022/06/10 06:30:40;;;;;;;;;1.67;1.67;;;;;;;;5061603;28;45498;-77
2022/06/10 06:33:06;;;;;;;;;2.67;2.00;;;;;;;;5072603;27;45617;-74
2022/06/10 06:35:32;;;;;;;;;2.67;1.00;;;;;;;;5071289;28;46083;-75
2022/06/10 06:37:58;;;;;;;;;0.00;0.00;;;;;;;;5068356;27;45452;-74
2022/06/10 06:40:23;;;;;;;;;1.33;1.00;;;;;;;;5066805;27;45511;-75
2022/06/10 06:42:49;;;;;;;;;1.00;1.00;;;;;;;;5071712;27;45446;-74
2022/06/10 06:45:16;;;;;;;;;3.00;2.00;;;;;;;;5064696;28;45429;-75
2022/06/10 06:47:41;;;;;;;;;1.33;1.00;;;;;;;;5062893;27;45355;-74
2022/06/10 06:50:07;;;;;;;;;4.67;1.67;;;;;;;;5073342;27;45331;-75
2022/06/10 06:52:32;;;;;;;;;2.33;1.67;;;;;;;;5070961;27;45479;-75
2022/06/10 06:54:57;;;;;;;;;1.00;1.00;;;;;;;;5072216;27;46020;-75
2022/06/10 06:57:25;;;;;;;;;0.33;0.33;;;;;;;;5073849;27;45493;-75
2022/06/10 06:59:53;;;;;;;;;0.67;0.67;;;;;;;;5075553;28;45478;-75
2022/06/10 07:02:18;;;;;;;;;1.00;1.00;;;;;;;;5072514;28;45414;-74
2022/06/10 07:04:43;;;;;;;;;2.67;1.00;;;;;;;;5073332;27;45385;-75
2022/06/10 07:07:08;;;;;;;;;1.00;1.00;;;;;;;;5072968;28;45338;-75
2022/06/10 07:09:33;;;;;;;;;2.33;1.67;;;;;;;;5074211;28;45358;-75
2022/06/10 07:11:58;;;;;;;;;0.67;0.67;;;;;;;;5080453;27;45602;-74
2022/06/10 07:14:24;;;;;;;;;3.67;1.00;;;;;;;;5068041;27;45437;-75
2022/06/10 07:16:52;;;;;;;;;1.67;1.33;;;;;;;;5069430;27;45425;-76
2022/06/10 07:19:21;;;;;;;;;0.33;0.33;;;;;;;;5068599;27;45429;-75
2022/06/10 07:21:46;;;;;;;;;1.00;1.00;;;;;;;;5073594;27;45411;-74
2022/06/10 07:24:12;;;;;;;;;1.67;1.67;;;;;;;;5065190;28;45305;-74
2022/06/10 07:26:37;;;;;;;;;1.00;1.00;;;;;;;;5067418;28;45295;-74
2022/06/10 07:29:02;;;;;;;;;1.00;1.00;;;;;;;;5078019;27;45277;-74
2022/06/10 07:31:28;;;;;;;;;4.00;1.00;;;;;;;;5070287;27;46243;-74
2022/06/10 07:33:53;;;;;;;;;1.00;1.00;;;;;;;;5073073;27;45572;-74
2022/06/10 07:36:19;;;;;;;;;1.33;1.00;;;;;;;;5071159;27;45453;-75
2022/06/10 07:38:44;;;;;;;;;1.33;1.33;;;;;;;;5079954;27;45433;-75
2022/06/10 07:43:53;;;;;;;;;1.00;1.00;;;;;;;;5057771;27;45412;-75
2022/06/10 07:46:19;;;;;;;;;0.67;0.67;;;;;;;;5075556;27;45438;-75
2022/06/10 07:48:44;;;;;;;;;3.67;2.00;;;;;;;;5081495;27;45409;-74
2022/06/10 07:51:10;;;;;;;;;1.00;1.00;;;;;;;;5077039;27;45352;-75
2022/06/10 07:53:35;;;;;;;;;1.00;1.00;;;;;;;;5079389;27;46635;-74
2022/06/10 07:56:01;;;;;;;;;1.00;1.00;;;;;;;;5075835;28;45528;-74
2022/06/10 07:58:28;;;;;;;;;2.00;2.00;;;;;;;;5081430;27;45518;-74
2022/06/10 08:00:54;;;;;;;;;1.67;1.00;;;;;;;;5077341;27;45502;-75
2022/06/10 08:03:19;;;;;;;;;1.33;1.00;;;;;;;;5062860;27;45559;-75
2022/06/10 08:05:44;;;;;;;;;2.00;2.00;;;;;;;;5082307;27;45264;-74
2022/06/10 08:08:13;;;;;;;;;1.00;1.00;;;;;;;;5080928;27;45644;-76
2022/06/10 08:10:38;;;;;;;;;2.67;1.00;;;;;;;;5070339;28;45480;-74
2022/06/10 08:13:04;;;;;;;;;1.33;1.00;;;;;;;;5067299;28;45489;-74
2022/06/10 08:15:30;;;;;;;;;1.00;1.00;;;;;;;;5062392;28;45497;-75
2022/06/10 08:17:58;;;;;;;;;1.00;1.00;;;;;;;;5079742;27;45424;-75
2022/06/10 08:23:12;;;;;;;;;2.00;2.00;;;;;;;;5071528;28;45815;-74
2022/06/10 08:25:37;;;;;;;;;2.00;1.00;;;;;;;;5069538;27;45494;-74
2022/06/10 08:28:03;;;;;;;;;2.00;2.00;;;;;;;;5070230;27;45574;-75
2022/06/10 08:30:28;;;;;;;;;2.00;2.00;;;;;;;;5063457;28;49097;-74
2022/06/10 08:32:53;;;;;;;;;1.00;0.00;;;;;;;;5080508;27;46958;-74
2022/06/10 08:35:18;;;;;;;;;2.00;2.00;;;;;;;;5079535;27;45465;-75
2022/06/10 08:37:43;;;;;;;;;2.00;2.00;;;;;;;;5068103;27;45534;-74
2022/06/10 08:40:17;;;;;;;;;1.00;1.00;;;;;;;;5076220;27;45336;-75
2022/06/10 08:42:42;;;;;;;;;3.33;1.00;;;;;;;;5077033;27;46215;-74
2022/06/10 08:45:46;;;;;;;;;3.33;1.00;;;;;;;;5078727;27;45449;-74
2022/06/10 08:48:11;;;;;;;;;2.00;2.00;;;;;;;;5033308;28;45740;-74
2022/06/10 08:51:05;;;;;;;;;3.00;3.00;;;;;;;;5033303;28;45361;-75
2022/06/10 08:53:31;;;;;;;;;1.67;1.67;;;;;;;;5017965;28;46135;-74
2022/06/10 08:56:03;;;;;;;;;2.67;1.33;;;;;;;;5033373;28;45445;-74
2022/06/10 08:58:41;;;;;;;;;1.00;1.00;;;;;;;;5025776;28;45397;-75
2022/06/10 09:01:11;;;;;;;;;1.00;1.00;;;;;;;;5035090;28;45627;-75
2022/06/10 09:03:40;;;;;;;;;2.00;1.00;;;;;;;;5033782;28;45503;-74
2022/06/10 09:06:25;;;;;;;;;1.00;1.00;;;;;;;;5036419;28;45422;-74
2022/06/10 09:08:53;;;;;;;;;1.00;1.00;;;;;;;;5020985;28;45503;-75
2022/06/10 09:11:28;;;;;;;;;1.00;1.00;;;;;;;;5037501;28;45372;-74
2022/06/10 09:13:53;;;;;;;;;1.00;1.00;;;;;;;;5031165;28;47108;-75
2022/06/10 09:16:21;;;;;;;;;1.00;1.00;;;;;;;;5038290;28;45344;-75
2022/06/10 09:18:49;;;;;;;;;2.00;1.00;;;;;;;;5046405;28;45381;-75
2022/06/10 09:21:25;;;;;;;;;1.33;1.33;;;;;;;;5075002;27;45499;-74
2022/06/10 09:23:52;;;;;;;;;0.67;0.67;;;;;;;;5068910;28;47183;-75
2022/06/10 09:26:21;;;;;;;;;3.00;1.67;;;;;;;;5062079;27;45485;-74
2022/06/10 09:28:46;;;;;;;;;1.00;1.00;;;;;;;;5070470;27;46310;-75
2022/06/10 09:31:16;;;;;;;;;3.00;2.00;;;;;;;;5077904;27;45430;-76
2022/06/10 09:33:47;;;;;;;;;1.00;1.00;;;;;;;;5085371;27;46310;-75
2022/06/10 09:36:21;;;;;;;;;1.33;1.33;;;;;;;;5071354;27;45617;-75
2022/06/10 09:38:46;;;;;;;;;1.00;1.00;;;;;;;;5074029;28;45435;-74
2022/06/10 09:41:36;;;;;;;;;0.00;0.00;;;;;;;;5070476;28;45498;-75
2022/06/10 09:44:08;;;;;;;;;2.00;2.00;;;;;;;;5065632;28;46172;-75
2022/06/10 09:46:44;;;;;;;;;1.33;1.33;;;;;;;;5064156;28;45501;-75
2022/06/10 09:49:18;;;;;;;;;3.00;1.00;;;;;;;;5069112;27;45353;-75
2022/06/10 09:51:50;;;;;;;;;1.33;0.67;;;;;;;;5065405;27;45394;-74
2022/06/10 09:54:21;;;;;;;;;1.33;1.33;;;;;;;;5077613;27;46322;-75
2022/06/10 09:56:46;;;;;;;;;1.67;1.33;;;;;;;;5072215;27;45451;-74
2022/06/10 09:59:11;;;;;;;;;1.67;0.00;;;;;;;;5075502;28;45388;-74
2022/06/10 10:01:42;;;;;;;;;1.00;1.00;;;;;;;;5072186;27;45471;-74
2022/06/10 10:04:19;;;;;;;;;2.00;2.00;;;;;;;;5066565;28;45484;-75
2022/06/10 10:07:03;;;;;;;;;1.00;1.00;;;;;;;;5071445;28;45304;-74
2022/06/10 10:09:38;;;;;;;;;1.00;1.00;;;;;;;;5069986;27;45305;-75
2022/06/10 10:12:39;;;;;;;;;0.00;0.00;;;;;;;;5072129;28;45263;-74
2022/06/10 10:15:17;;;;;;;;;1.33;1.00;;;;;;;;5031123;28;45583;-74
2022/06/10 10:18:03;;;;;;;;;1.33;1.00;;;;;;;;5034576;28;45373;-74
2022/06/10 10:20:54;;;;;;;;;0.33;0.33;;;;;;;;5028427;28;45539;-74
2022/06/10 10:23:30;;;;;;;;;1.00;1.00;;;;;;;;5027142;28;45411;-76
2022/06/10 10:25:55;;;;;;;;;0.00;0.00;;;;;;;;5027049;28;46203;-75
2022/06/10 10:28:26;;;;;;;;;0.00;0.00;;;;;;;;5029835;28;45437;-75
2022/06/10 10:30:58;;;;;;;;;2.00;2.00;;;;;;;;5030989;28;45509;-74
2022/06/10 10:33:24;;;;;;;;;1.00;1.00;;;;;;;;5025122;28;46333;-75
2022/06/10 10:35:51;;;;;;;;;3.33;2.00;;;;;;;;5028581;28;46900;-75
2022/06/10 10:38:28;;;;;;;;;1.00;1.00;;;;;;;;5031571;28;45514;-75
2022/06/10 10:40:53;;;;;;;;;1.00;1.00;;;;;;;;5027997;28;45605;-74
2022/06/10 10:43:21;;;;;;;;;1.67;1.00;;;;;;;;5027551;28;45574;-75
2022/06/10 10:45:52;;;;;;;;;2.00;1.00;;;;;;;;5032868;28;46180;-74
2022/06/10 10:48:30;;;;;;;;;1.00;1.00;;;;;;;;5038498;27;45419;-74
2022/06/10 10:51:19;;;;;;;;;1.00;1.00;;;;;;;;5060166;28;45477;-74
2022/06/10 10:53:54;;;;;;;;;4.00;1.00;;;;;;;;5078527;27;45421;-74
2022/06/10 10:56:27;;;;;;;;;1.00;1.00;;;;;;;;5076135;27;51255;-74
2022/06/10 10:58:54;;;;;;;;;2.00;1.00;;;;;;;;5064872;27;45295;-74
2022/06/10 11:01:43;;;;;;;;;3.00;2.00;;;;;;;;5073756;27;45454;-78
2022/06/10 11:04:14;;;;;;;;;1.33;1.33;;;;;;;;5074326;27;45490;-72
2022/06/10 11:06:40;;;;;;;;;1.00;1.00;;;;;;;;5071453;28;46192;-72
2022/06/10 11:09:22;;;;;;;;;0.00;0.00;;;;;;;;5071724;28;45659;-72
2022/06/10 11:11:49;;;;;;;;;2.33;1.00;;;;;;;;5068435;28;45327;-75
2022/06/10 11:14:21;;;;;;;;;1.00;1.00;;;;;;;;5068195;27;45365;-73
2022/06/10 11:17:09;;;;;;;;;1.33;0.67;;;;;;;;5062702;27;45325;-73
2022/06/10 11:19:34;;;;;;;;;1.00;1.00;;;;;;;;5057130;28;45434;-75
2022/06/10 11:22:15;;;;;;;;;0.75;0.75;;;;;;;;5071730;27;45425;-75
2022/06/10 11:24:40;;;;;;;;;1.00;0.67;;;;;;;;5067998;28;45580;-75
2022/06/10 11:27:24;;;;;;;;;2.00;1.00;;;;;;;;5061332;28;48078;-74
2022/06/10 11:30:08;;;;;;;;;1.00;1.00;;;;;;;;5063317;27;45394;-74
2022/06/10 11:32:39;;;;;;;;;1.67;1.00;;;;;;;;5070984;28;45538;-75
2022/06/10 11:35:24;;;;;;;;;1.00;1.00;;;;;;;;5068164;27;45361;-74
2022/06/10 11:37:52;;;;;;;;;1.00;1.00;;;;;;;;5051634;28;46534;-75
2022/06/10 11:40:28;;;;;;;;;1.00;1.00;;;;;;;;5050511;28;45441;-75
2022/06/10 11:42:58;;;;;;;;;1.00;1.00;;;;;;;;5055890;28;45469;-74
2022/06/10 11:45:46;;;;;;;;;1.00;1.00;;;;;;;;5052111;28;45411;-74
2022/06/10 11:48:27;;;;;;;;;0.00;0.00;;;;;;;;5021520;28;46120;-74
2022/06/10 11:50:55;;;;;;;;;0.00;0.00;;;;;;;;5012732;28;45448;-75
2022/06/10 11:53:26;;;;;;;;;2.67;1.00;;;;;;;;5015111;28;45629;-74
2022/06/10 11:59:42;;;;;;;;;1.00;1.00;;;;;;;;5011440;28;45555;-75
2022/06/10 12:01:26;;;;;;;;;2.00;0.33;;;;;;;;4998882;28;50090;-75
2022/06/10 12:04:00;;;;;;;;;2.00;0.33;;;;;;;;4997408;28;45350;-74
2022/06/10 12:06:31;;;;;;;;;1.00;1.00;;;;;;;;4992350;28;45444;-74
2022/06/10 12:09:15;;;;;;;;;1.00;1.00;;;;;;;;4991805;28;47220;-74
2022/06/10 12:11:43;;;;;;;;;1.00;1.00;;;;;;;;4991231;28;45543;-74
2022/06/10 12:14:08;;;;;;;;;3.00;1.00;;;;;;;;4991907;28;45345;-75
2022/06/10 12:16:34;;;;;;;;;1.00;1.00;;;;;;;;4997967;28;45449;-74
2022/06/10 12:19:01;;;;;;;;;0.00;0.00;;;;;;;;4993753;28;45360;-74
2022/06/10 12:21:28;;;;;;;;;0.00;0.00;;;;;;;;4990812;28;45431;-73
2022/06/10 12:23:53;;;;;;;;;2.00;1.00;;;;;;;;4992583;28;45680;-74
2022/06/10 12:26:42;;;;;;;;;1.33;1.33;;;;;;;;5015993;28;45597;-74
2022/06/10 12:29:16;;;;;;;;;1.00;1.00;;;;;;;;5020060;28;46272;-73
2022/06/10 12:31:47;;;;;;;;;1.00;1.00;;;;;;;;5031286;28;45506;-74
2022/06/10 12:34:23;;;;;;;;;1.00;1.00;;;;;;;;5040581;28;45489;-74
2022/06/10 12:37:00;;;;;;;;;0.33;0.00;;;;;;;;5032133;28;45341;-74
2022/06/10 12:39:25;;;;;;;;;1.00;1.00;;;;;;;;5031378;28;47165;-74
2022/06/10 12:41:55;;;;;;;;;3.00;1.67;;;;;;;;5038469;28;45556;-75
2022/06/10 12:44:24;;;;;;;;;1.00;1.00;;;;;;;;5056915;28;47251;-75
2022/06/10 12:46:53;;;;;;;;;2.00;2.00;;;;;;;;5026745;28;45523;-76
2022/06/10 12:49:24;;;;;;;;;0.00;0.00;;;;;;;;5031790;28;47065;-75
2022/06/10 12:52:00;;;;;;;;;1.00;1.00;;;;;;;;5032074;28;46055;-75
2022/06/10 12:54:33;;;;;;;;;1.00;1.00;;;;;;;;5046662;28;45626;-75
2022/06/10 12:57:17;;;;;;;;;0.00;0.00;;;;;;;;5077818;27;45542;-75
2022/06/10 12:59:42;;;;;;;;;1.00;1.00;;;;;;;;5066378;27;46315;-75
2022/06/10 13:02:28;;;;;;;;;0.00;0.00;;;;;;;;5076571;27;45919;-76
2022/06/10 13:04:55;;;;;;;;;0.67;0.67;;;;;;;;5080980;27;45492;-75
2022/06/10 13:07:30;;;;;;;;;1.67;1.67;;;;;;;;5068045;28;45517;-75
2022/06/10 13:10:15;;;;;;;;;1.00;0.00;;;;;;;;5072351;27;46064;-75
2022/06/10 13:12:42;;;;;;;;;0.00;0.00;;;;;;;;5074561;27;45427;-76
2022/06/10 13:15:12;;;;;;;;;1.33;0.00;;;;;;;;5083643;27;45416;-75
2022/06/10 13:17:50;;;;;;;;;0.33;0.33;;;;;;;;5075702;28;45414;-75
2022/06/10 13:20:17;;;;;;;;;1.33;1.00;;;;;;;;5072200;27;46614;-75
2022/06/10 13:22:43;;;;;;;;;1.00;1.00;;;;;;;;5080680;27;45378;-75
2022/06/10 13:25:08;;;;;;;;;1.00;1.00;;;;;;;;5075625;28;45503;-75
2022/06/10 13:27:35;;;;;;;;;1.67;1.67;;;;;;;;5074431;27;45429;-75
2022/06/10 13:30:04;;;;;;;;;0.00;0.00;;;;;;;;5077868;27;47564;-74
2022/06/10 13:32:29;;;;;;;;;1.00;1.00;;;;;;;;5076302;28;45489;-74
2022/06/10 13:34:56;;;;;;;;;1.67;1.67;;;;;;;;5066400;27;45474;-75
2022/06/10 13:37:23;;;;;;;;;1.00;1.00;;;;;;;;5069898;28;45332;-75
2022/06/10 13:39:50;;;;;;;;;1.00;1.00;;;;;;;;5081639;27;47401;-74
2022/06/10 13:42:22;;;;;;;;;0.67;0.67;;;;;;;;5070473;27;46077;-74
2022/06/10 13:44:49;;;;;;;;;0.00;0.00;;;;;;;;5072316;27;45371;-75
2022/06/10 13:47:25;;;;;;;;;1.00;1.00;;;;;;;;5077578;27;45330;-74
2022/06/10 13:50:04;;;;;;;;;1.00;1.00;;;;;;;;5065873;28;45292;-75
2022/06/10 13:52:31;;;;;;;;;1.00;1.00;;;;;;;;5071431;27;45576;-75
2022/06/10 13:54:57;;;;;;;;;1.00;1.00;;;;;;;;5075826;27;45467;-75
2022/06/10 13:57:28;;;;;;;;;1.67;0.67;;;;;;;;5074489;27;48785;-74
2022/06/10 14:00:01;;;;;;;;;0.67;0.67;;;;;;;;5065875;27;45446;-75
2022/06/10 14:02:28;;;;;;;;;0.00;0.00;;;;;;;;5062262;28;45396;-74
2022/06/10 14:04:53;;;;;;;;;0.00;0.00;;;;;;;;5072365;27;45509;-73
2022/06/10 14:07:18;;;;;;;;;0.33;0.33;;;;;;;;5068186;28;45462;-75
2022/06/10 14:09:45;;;;;;;;;0.00;0.00;;;;;;;;5080252;27;46212;-75
2022/06/10 14:12:10;;;;;;;;;2.67;1.00;;;;;;;;5064587;27;45383;-74
2022/06/10 14:14:38;;;;;;;;;1.00;1.00;;;;;;;;5071806;27;45581;-74
2022/06/10 14:17:08;;;;;;;;;0.33;0.00;;;;;;;;5082383;27;45492;-74
2022/06/10 14:19:36;;;;;;;;;1.00;1.00;;;;;;;;5070432;27;46972;-74
2022/06/10 14:22:06;;;;;;;;;1.00;1.00;;;;;;;;5069684;28;45424;-74
2022/06/10 14:24:31;;;;;;;;;1.00;1.00;;;;;;;;5074802;27;45526;-74
2022/06/10 14:27:03;;;;;;;;;0.00;0.00;;;;;;;;5065760;28;45479;-75
2022/06/10 14:29:39;;;;;;;;;2.00;1.00;;;;;;;;5070942;28;46295;-74
2022/06/10 14:32:27;;;;;;;;;2.00;1.00;;;;;;;;5075582;27;45363;-74
2022/06/10 14:34:53;;;;;;;;;0.00;0.00;;;;;;;;5081266;27;45512;-75
2022/06/10 14:37:23;;;;;;;;;1.00;1.00;;;;;;;;5071764;27;45493;-75
2022/06/10 14:40:07;;;;;;;;;1.00;1.00;;;;;;;;5059094;28;47522;-74
2022/06/10 14:42:34;;;;;;;;;0.00;0.00;;;;;;;;5072064;27;48303;-75
2022/06/10 14:45:01;;;;;;;;;0.00;0.00;;;;;;;;5064343;28;46166;-74
2022/06/10 14:47:29;;;;;;;;;0.00;0.00;;;;;;;;5062090;28;47461;-74
2022/06/10 14:50:11;;;;;;;;;1.00;1.00;;;;;;;;5072191;27;46288;-74
2022/06/10 14:52:40;;;;;;;;;0.00;0.00;;;;;;;;5073190;27;45441;-74
2022/06/10 14:55:13;;;;;;;;;0.67;0.67;;;;;;;;5068961;28;47213;-75
2022/06/10 14:57:39;;;;;;;;;1.67;0.33;;;;;;;;5076026;27;45462;-75
2022/06/10 15:00:11;;;;;;;;;0.00;0.00;;;;;;;;5064318;28;45531;-74
2022/06/10 15:02:36;;;;;;;;;0.33;0.33;;;;;;;;5075273;27;45516;-75
2022/06/10 15:07:46;;;;;;;;;0.67;0.67;;;;;;;;5078289;27;45360;-75
2022/06/10 15:10:12;;;;;;;;;0.00;0.00;;;;;;;;5074165;27;46486;-74
2022/06/10 15:12:38;;;;;;;;;0.00;0.00;;;;;;;;5078578;27;45427;-73